Time;durP1;ratioP1;P1;durP2;ratioP2;P2;SDS_P1;SDS_P2;PMS_P1;PMS_P2;Temp;Humidity;BMP_temperature;BMP_pressure;BME280_temperature;BME280_humidity;BME280_pressure;Samples;Min_cycle;Max_cycle;Signal;HPM_P1;HPM_P2
2023/10/09 00:01:13;;;;;;;3.00;1.30;;;12.70;99.90;;;;;;4942382;29;20225;-78
2023/10/09 00:03:42;;;;;;;3.23;1.23;;;12.60;99.90;;;;;;4950428;29;20218;-78
2023/10/09 00:06:12;;;;;;;4.33;1.70;;;12.60;99.90;;;;;;4948850;29;20218;-79
2023/10/09 00:08:44;;;;;;;1.53;1.23;;;12.70;99.90;;;;;;4938990;29;20224;-79
2023/10/09 00:11:16;;;;;;;2.57;1.40;;;12.70;99.90;;;;;;4948365;29;20213;-78
2023/10/09 00:13:50;;;;;;;2.07;1.23;;;12.70;99.90;;;;;;4948032;29;20242;-79
2023/10/09 00:16:24;;;;;;;4.67;2.03;;;12.70;99.90;;;;;;4929951;29;20219;-78
2023/10/09 00:18:53;;;;;;;4.60;2.40;;;12.70;99.90;;;;;;4941680;29;20650;-79
2023/10/09 00:21:22;;;;;;;3.13;1.80;;;12.70;99.90;;;;;;4941869;29;20222;-79
2023/10/09 00:23:55;;;;;;;4.70;2.10;;;12.70;99.90;;;;;;4946061;29;20226;-78
2023/10/09 00:26:23;;;;;;;2.73;1.83;;;12.80;99.90;;;;;;4942309;29;20222;-79
2023/10/09 00:28:51;;;;;;;3.07;2.60;;;12.70;99.90;;;;;;4937672;29;20235;-78
2023/10/09 00:31:27;;;;;;;2.83;2.07;;;12.70;99.90;;;;;;4945503;29;20629;-78
2023/10/09 00:33:55;;;;;;;4.17;1.97;;;12.70;99.90;;;;;;4949369;29;20718;-79
2023/10/09 00:36:28;;;;;;;2.10;1.40;;;12.80;99.90;;;;;;4938498;29;20231;-76
2023/10/09 00:38:55;;;;;;;3.37;1.93;;;12.70;99.90;;;;;;4927317;29;20307;-79
2023/10/09 00:41:24;;;;;;;5.57;2.00;;;12.80;99.90;;;;;;4943346;29;20261;-77
2023/10/09 00:43:52;;;;;;;2.47;1.90;;;12.80;99.90;;;;;;4946851;29;20219;-79
2023/10/09 00:46:24;;;;;;;2.53;2.00;;;12.90;99.90;;;;;;4947003;29;20262;-77
2023/10/09 00:48:56;;;;;;;3.43;1.53;;;12.80;99.90;;;;;;4945935;29;20230;-77
2023/10/09 00:51:25;;;;;;;3.13;1.90;;;12.80;99.90;;;;;;4951331;29;20207;-79
2023/10/09 00:53:54;;;;;;;4.97;1.80;;;12.80;99.90;;;;;;4944252;29;20204;-78
2023/10/09 00:56:28;;;;;;;3.50;1.80;;;12.90;99.90;;;;;;4950432;29;20297;-79
2023/10/09 00:59:00;;;;;;;2.40;1.70;;;12.90;99.90;;;;;;4946905;29;20227;-77
2023/10/09 01:01:34;;;;;;;5.00;1.93;;;12.80;99.90;;;;;;4946654;29;20237;-79
2023/10/09 01:04:12;;;;;;;2.97;1.80;;;12.80;99.90;;;;;;4941940;29;20259;-78
2023/10/09 01:06:44;;;;;;;3.67;1.87;;;12.90;99.90;;;;;;4932090;29;20272;-78
2023/10/09 01:09:12;;;;;;;3.73;1.57;;;12.90;99.90;;;;;;4941002;29;20231;-77
2023/10/09 01:11:48;;;;;;;2.67;2.00;;;12.80;99.90;;;;;;4944905;29;20215;-78
2023/10/09 01:14:15;;;;;;;4.87;2.33;;;12.90;99.90;;;;;;4947906;29;20198;-76
2023/10/09 01:16:43;;;;;;;4.07;2.13;;;12.90;99.90;;;;;;4945873;29;20622;-77
2023/10/09 01:19:20;;;;;;;4.00;1.90;;;12.90;99.90;;;;;;4937109;29;20256;-78
2023/10/09 01:21:48;;;;;;;3.93;2.57;;;12.90;99.90;;;;;;4943970;29;20246;-78
2023/10/09 01:24:19;;;;;;;5.10;2.30;;;12.90;99.90;;;;;;4931033;29;20640;-78
2023/10/09 01:26:47;;;;;;;3.00;2.47;;;13.00;99.90;;;;;;4946091;29;20211;-78
2023/10/09 01:29:18;;;;;;;4.70;1.80;;;13.00;99.90;;;;;;4945536;29;20225;-79
2023/10/09 01:31:51;;;;;;;4.00;1.70;;;13.00;99.90;;;;;;4945564;29;20214;-78
2023/10/09 01:34:23;;;;;;;5.00;1.90;;;12.90;99.90;;;;;;4947043;29;20223;-79
2023/10/09 01:36:54;;;;;;;6.77;2.07;;;12.90;99.90;;;;;;4946134;29;20279;-78
2023/10/09 01:39:26;;;;;;;2.90;2.17;;;12.90;99.90;;;;;;4944657;28;20254;-78
2023/10/09 01:41:58;;;;;;;7.37;1.90;;;12.90;99.90;;;;;;4946634;29;20214;-78
2023/10/09 01:44:28;;;;;;;5.53;2.07;;;13.00;99.90;;;;;;4935872;29;20319;-79
2023/10/09 01:46:57;;;;;;;4.30;2.20;;;12.90;99.90;;;;;;4936567;29;20228;-78
2023/10/09 01:49:29;;;;;;;3.77;2.10;;;12.90;99.90;;;;;;4943042;29;20710;-79
2023/10/09 01:52:01;;;;;;;4.77;2.43;;;13.00;99.90;;;;;;4939651;29;20250;-78
2023/10/09 01:54:37;;;;;;;4.17;2.10;;;13.00;99.90;;;;;;4951754;29;20282;-79
2023/10/09 01:57:11;;;;;;;4.97;2.13;;;12.90;99.90;;;;;;4945400;29;20206;-79
2023/10/09 01:59:43;;;;;;;5.90;2.30;;;12.90;99.90;;;;;;4936379;29;20218;-78
2023/10/09 02:02:24;;;;;;;5.30;2.33;;;12.90;99.90;;;;;;4946777;29;20210;-78
2023/10/09 02:04:51;;;;;;;6.87;2.97;;;12.90;99.90;;;;;;4946553;29;20207;-80
2023/10/09 02:07:26;;;;;;;5.93;3.27;;;12.90;99.90;;;;;;4946591;29;20218;-78
2023/10/09 02:09:55;;;;;;;4.70;2.33;;;12.90;99.90;;;;;;4942705;29;20215;-79
2023/10/09 02:12:23;;;;;;;5.97;2.77;;;12.90;99.90;;;;;;4935163;29;20226;-79
2023/10/09 02:14:53;;;;;;;6.80;2.67;;;12.90;99.90;;;;;;4945870;29;20215;-77
2023/10/09 02:17:24;;;;;;;10.57;4.10;;;12.80;99.90;;;;;;4943161;29;20214;-78
2023/10/09 02:19:52;;;;;;;6.53;3.20;;;13.30;99.90;;;;;;4945698;29;20696;-78
2023/10/09 02:22:19;;;;;;;5.90;2.70;;;12.90;99.90;;;;;;4944030;29;20212;-78
2023/10/09 02:24:57;;;;;;;9.93;2.77;;;12.90;99.90;;;;;;4945417;29;20222;-79
2023/10/09 02:27:46;;;;;;;6.60;3.37;;;13.00;99.90;;;;;;4942348;29;20207;-78
2023/10/09 02:30:27;;;;;;;5.53;2.97;;;12.90;99.90;;;;;;4934312;29;20199;-79
2023/10/09 02:33:06;;;;;;;5.53;2.70;;;12.90;99.90;;;;;;4945369;29;20235;-78
2023/10/09 02:35:39;;;;;;;6.83;3.33;;;13.10;99.90;;;;;;4945176;29;20326;-77
2023/10/09 02:38:09;;;;;;;7.60;3.47;;;12.90;99.90;;;;;;4944888;29;20695;-77
2023/10/09 02:40:41;;;;;;;12.90;7.23;;;13.00;99.90;;;;;;4943011;29;20199;-77
2023/10/09 02:43:17;;;;;;;12.67;8.30;;;12.90;99.90;;;;;;4947426;29;20202;-78
2023/10/09 02:45:50;;;;;;;4.93;2.97;;;12.80;99.90;;;;;;4941001;29;20223;-79
2023/10/09 02:48:19;;;;;;;6.47;3.07;;;12.70;99.90;;;;;;4941146;29;20227;-79
2023/10/09 02:50:47;;;;;;;7.73;3.47;;;12.70;99.90;;;;;;4941049;29;20199;-77
2023/10/09 02:53:19;;;;;;;5.60;3.17;;;12.80;99.90;;;;;;4944062;29;20205;-77
2023/10/09 02:56:03;;;;;;;7.40;3.40;;;12.70;99.90;;;;;;4943305;29;20568;-78
2023/10/09 02:58:36;;;;;;;5.87;2.97;;;12.60;99.90;;;;;;4939495;29;20242;-76
2023/10/09 03:01:03;;;;;;;5.67;3.13;;;12.70;99.90;;;;;;4944949;29;20278;-78
2023/10/09 03:03:30;;;;;;;8.43;3.30;;;12.80;99.90;;;;;;4945127;29;20739;-76
2023/10/09 03:05:57;;;;;;;6.47;3.50;;;12.70;99.90;;;;;;4945101;29;20238;-77
2023/10/09 03:08:23;;;;;;;5.93;3.30;;;12.80;99.90;;;;;;4936606;29;20238;-77
2023/10/09 03:10:50;;;;;;;6.20;3.23;;;12.80;99.90;;;;;;4946323;29;20218;-76
2023/10/09 03:13:19;;;;;;;10.50;3.50;;;12.90;99.90;;;;;;4947029;29;20297;-77
2023/10/09 03:15:48;;;;;;;6.67;3.53;;;12.80;99.90;;;;;;4947517;29;20199;-78
2023/10/09 03:18:15;;;;;;;13.77;3.23;;;12.80;99.90;;;;;;4948163;29;20781;-77
2023/10/09 03:20:44;;;;;;;9.43;3.67;;;12.80;99.90;;;;;;4947382;29;20231;-78
2023/10/09 03:23:14;;;;;;;8.00;3.77;;;12.80;99.90;;;;;;4948423;29;20282;-79
2023/10/09 03:25:45;;;;;;;8.77;3.53;;;12.80;99.90;;;;;;4947877;29;20246;-77
2023/10/09 03:28:12;;;;;;;11.57;5.67;;;12.80;99.90;;;;;;4942272;29;20231;-77
2023/10/09 03:30:40;;;;;;;9.00;3.93;;;12.80;99.90;;;;;;4938322;29;20243;-78
2023/10/09 03:33:08;;;;;;;10.70;3.77;;;12.80;99.90;;;;;;4944999;29;20214;-78
2023/10/09 03:35:36;;;;;;;6.80;3.90;;;12.90;99.90;;;;;;4946984;29;20207;-77
2023/10/09 03:38:11;;;;;;;10.90;4.63;;;12.90;99.90;;;;;;4939536;29;20219;-81
2023/10/09 03:40:42;;;;;;;11.70;4.87;;;12.90;99.90;;;;;;4940466;29;20230;-80
2023/10/09 03:43:10;;;;;;;14.23;5.77;;;13.00;99.90;;;;;;4946832;29;20215;-80
2023/10/09 03:45:38;;;;;;;11.03;5.33;;;13.00;99.90;;;;;;4947340;29;20230;-80
2023/10/09 03:48:11;;;;;;;9.77;5.60;;;13.00;99.90;;;;;;4934769;29;20238;-79
2023/10/09 03:50:43;;;;;;;11.43;5.90;;;13.10;99.90;;;;;;4944510;29;20226;-77
2023/10/09 03:53:12;;;;;;;15.10;6.40;;;13.10;99.90;;;;;;4946727;29;20238;-79
2023/10/09 03:55:40;;;;;;;16.67;7.03;;;13.20;99.90;;;;;;4946179;29;20234;-79
2023/10/09 03:58:07;;;;;;;14.40;6.43;;;13.30;99.90;;;;;;4938187;29;20230;-78
2023/10/09 04:00:45;;;;;;;12.43;6.20;;;13.30;99.90;;;;;;4933508;29;20212;-80
2023/10/09 04:03:14;;;;;;;16.60;6.57;;;13.40;99.90;;;;;;4946324;29;20199;-78
2023/10/09 04:05:43;;;;;;;17.80;7.60;;;13.40;99.90;;;;;;4945074;29;20292;-76
2023/10/09 04:08:16;;;;;;;15.13;6.83;;;13.50;99.90;;;;;;4945816;29;20325;-79
2023/10/09 04:10:52;;;;;;;18.17;7.87;;;13.50;99.90;;;;;;4944480;29;20199;-77
2023/10/09 04:13:22;;;;;;;14.83;7.60;;;13.60;99.90;;;;;;4936517;29;20206;-78
2023/10/09 04:15:52;;;;;;;16.90;7.90;;;13.60;99.90;;;;;;4946438;29;20210;-79
2023/10/09 04:18:20;;;;;;;22.73;8.93;;;13.60;99.90;;;;;;4945609;29;20710;-79
2023/10/09 04:21:13;;;;;;;18.90;8.40;;;13.60;99.90;;;;;;4944519;29;20242;-79
2023/10/09 04:23:59;;;;;;;18.20;9.20;;;13.60;99.90;;;;;;4934874;29;20298;-81
2023/10/09 04:26:24;;;;;;;21.07;10.83;;;13.60;99.90;;;;;;4944380;29;20290;-78
2023/10/09 04:28:52;;;;;;;23.53;10.40;;;13.70;99.90;;;;;;4944789;29;20227;-79
2023/10/09 04:31:22;;;;;;;21.87;9.97;;;13.70;99.90;;;;;;4944182;29;20922;-77
2023/10/09 04:34:21;;;;;;;18.50;9.33;;;13.70;99.90;;;;;;4943599;29;20212;-81
2023/10/09 04:36:56;;;;;;;19.87;9.83;;;13.70;99.90;;;;;;4943350;29;20281;-75
2023/10/09 04:39:46;;;;;;;19.83;8.97;;;13.70;99.90;;;;;;4940518;29;20302;-78
2023/10/09 04:45:59;;;;;;;20.63;10.43;;;13.70;99.90;;;;;;4949002;28;20235;-79
2023/10/09 04:48:06;;;;;;;22.47;10.57;;;13.70;99.90;;;;;;4938583;29;20645;-77
2023/10/09 04:50:45;;;;;;;22.20;10.93;;;13.70;99.90;;;;;;4937840;29;20203;-80
2023/10/09 04:53:22;;;;;;;23.37;10.87;;;13.80;99.90;;;;;;4943683;29;20207;-80
2023/10/09 04:55:55;;;;;;;21.33;11.93;;;13.70;99.90;;;;;;4948721;29;20687;-78
2023/10/09 04:58:25;;;;;;;25.33;12.17;;;13.70;99.90;;;;;;4945310;29;20227;-78
2023/10/09 05:03:45;;;;;;;22.07;12.67;;;13.70;99.90;;;;;;4925727;28;20227;-79
2023/10/09 05:09:08;;;;;;;27.00;13.70;;;13.70;99.90;;;;;;4929637;29;20229;-78
2023/10/09 05:11:52;;;;;;;28.17;14.17;;;13.70;99.90;;;;;;4936878;29;20215;-78
2023/10/09 05:14:26;;;;;;;35.13;15.87;;;13.70;99.90;;;;;;4934894;29;20666;-78
2023/10/09 05:16:55;;;;;;;31.73;18.77;;;13.70;99.90;;;;;;4935007;29;20211;-78
2023/10/09 05:19:41;;;;;;;34.90;19.83;;;13.80;99.90;;;;;;4939140;29;20254;-79
2023/10/09 05:22:29;;;;;;;42.23;22.43;;;13.90;99.90;;;;;;4938125;29;20214;-79
2023/10/09 05:24:58;;;;;;;39.10;22.93;;;13.90;99.90;;;;;;4937680;29;20239;-78
2023/10/09 05:33:27;;;;;;;38.30;21.20;;;14.00;99.90;;;;;;4943040;28;20199;-77
2023/10/09 05:36:05;;;;;;;40.47;23.80;;;14.10;99.90;;;;;;4943451;29;20207;-78
2023/10/09 05:38:46;;;;;;;37.43;23.27;;;14.10;99.90;;;;;;4935620;29;20234;-78
2023/10/09 05:41:47;;;;;;;39.15;22.38;;;14.10;99.90;;;;;;4932530;29;20283;-79
2023/10/09 05:47:22;;;;;;;38.83;23.90;;;14.10;99.90;;;;;;4939185;29;20211;-78
2023/10/09 05:50:33;;;;;;;37.20;21.50;;;14.10;99.90;;;;;;4943708;29;20222;-79
2023/10/09 06:03:53;;;;;;;35.03;19.50;;;14.10;99.90;;;;;;4935758;29;20418;-79
2023/10/09 06:06:33;;;;;;;36.35;19.42;;;14.20;99.90;;;;;;4935612;29;20713;-80
2023/10/09 06:09:28;;;;;;;35.50;20.08;;;14.10;99.90;;;;;;4932916;29;20257;-79
2023/10/09 06:12:33;;;;;;;32.58;19.30;;;14.10;99.90;;;;;;4934585;29;20851;-79
2023/10/09 06:15:18;;;;;;;36.55;20.42;;;14.00;99.90;;;;;;4935073;29;20583;-80
2023/10/09 06:17:50;;;;;;;35.93;19.37;;;14.10;99.90;;;;;;4936835;29;20206;-79
2023/10/09 06:23:15;;;;;;;32.03;18.93;;;14.10;99.90;;;;;;4931534;29;20201;-78
2023/10/09 06:25:50;;;;;;;34.47;18.95;;;14.10;99.90;;;;;;4934509;29;20215;-79
2023/10/09 06:28:32;;;;;;;33.95;19.13;;;14.10;99.90;;;;;;4941817;29;20231;-79
2023/10/09 06:31:27;;;;;;;33.08;19.27;;;14.00;99.90;;;;;;4941998;29;20211;-79
2023/10/09 06:34:08;;;;;;;30.02;18.80;;;14.10;99.90;;;;;;4933821;29;20216;-79
2023/10/09 06:36:33;;;;;;;32.72;19.63;;;14.00;99.90;;;;;;4941196;29;20209;-80
2023/10/09 06:39:50;;;;;;;31.67;18.23;;;14.00;99.90;;;;;;4952204;29;20233;-79
2023/10/09 06:42:09;;;;;;;31.17;19.63;;;14.10;99.90;;;;;;4941304;29;20254;-80
2023/10/09 06:47:18;;;;;;;33.15;19.58;;;14.10;99.90;;;;;;4943515;29;20602;-81
2023/10/09 06:50:12;;;;;;;33.72;19.45;;;14.10;99.90;;;;;;4933778;29;20295;-79
2023/10/09 06:55:19;;;;;;;33.03;19.17;;;14.10;99.90;;;;;;4937710;29;20282;-80
2023/10/09 06:57:48;;;;;;;36.30;19.52;;;14.10;99.90;;;;;;4934978;29;20199;-80
2023/10/09 07:03:11;;;;;;;32.58;19.25;;;14.10;99.90;;;;;;4944226;29;20198;-80
2023/10/09 07:06:00;;;;;;;30.70;18.50;;;14.10;99.90;;;;;;4943764;29;20285;-80
2023/10/09 07:08:32;;;;;;;35.83;20.80;;;14.10;99.90;;;;;;4935425;29;20231;-80
2023/10/09 07:11:21;;;;;;;33.63;19.55;;;14.10;99.90;;;;;;4924107;29;20255;-80
2023/10/09 07:13:53;;;;;;;34.05;19.52;;;14.10;99.90;;;;;;4933650;29;20310;-79
2023/10/09 07:16:28;;;;;;;36.45;20.15;;;14.20;99.90;;;;;;4936665;29;20299;-81
2023/10/09 07:19:09;;;;;;;32.50;18.85;;;14.20;99.90;;;;;;4941274;29;20282;-80
2023/10/09 07:21:38;;;;;;;32.33;20.23;;;14.40;99.90;;;;;;4941928;29;20203;-79
2023/10/09 07:24:14;;;;;;;36.55;20.08;;;14.20;99.90;;;;;;4928261;29;20210;-80
2023/10/09 07:26:47;;;;;;;36.17;19.92;;;14.20;99.90;;;;;;4943587;29;20230;-79
2023/10/09 07:29:22;;;;;;;32.92;20.33;;;14.20;99.90;;;;;;4943778;29;20235;-81
2023/10/09 07:31:57;;;;;;;31.85;19.55;;;14.20;99.90;;;;;;4944253;29;20704;-79
2023/10/09 07:34:32;;;;;;;35.88;19.55;;;14.20;99.90;;;;;;4958501;29;20641;-79
2023/10/09 07:37:03;;;;;;;33.78;18.98;;;14.20;99.90;;;;;;4934476;29;20286;-79
2023/10/09 07:39:34;;;;;;;34.13;18.23;;;14.20;99.90;;;;;;4946323;29;20611;-81
2023/10/09 07:42:15;;;;;;;37.55;19.83;;;14.20;99.90;;;;;;4930912;29;20226;-79
2023/10/09 07:44:52;;;;;;;37.22;19.20;;;14.20;99.90;;;;;;4935062;29;20222;-79
2023/10/09 07:47:22;;;;;;;41.20;19.67;;;14.20;99.90;;;;;;4939644;29;20270;-78
2023/10/09 07:49:54;;;;;;;32.93;19.80;;;14.30;99.90;;;;;;4946101;29;20718;-79
2023/10/09 07:52:22;;;;;;;35.03;20.17;;;14.20;99.90;;;;;;4946221;29;20211;-79
2023/10/09 07:54:52;;;;;;;37.03;19.42;;;14.30;99.90;;;;;;4944365;29;20210;-79
2023/10/09 07:57:26;;;;;;;36.15;20.13;;;14.30;99.90;;;;;;4946284;29;20209;-80
2023/10/09 08:00:00;;;;;;;33.17;18.88;;;14.30;99.90;;;;;;4945600;29;20227;-80
2023/10/09 08:02:36;;;;;;;34.67;20.93;;;14.30;99.90;;;;;;4940925;28;20210;-79
2023/10/09 08:05:06;;;;;;;33.45;20.20;;;14.30;99.90;;;;;;4938217;29;20206;-80
2023/10/09 08:07:36;;;;;;;34.22;20.45;;;14.30;99.90;;;;;;4945275;29;20301;-81
2023/10/09 08:13:49;;;;;;;33.88;20.92;;;14.30;99.90;;;;;;4944276;29;20255;-79
2023/10/09 08:15:52;;;;;;;33.33;20.35;;;14.30;99.90;;;;;;4942313;29;20207;-79
2023/10/09 08:18:27;;;;;;;39.17;20.17;;;14.40;99.90;;;;;;4931863;29;20222;-78
2023/10/09 08:23:49;;;;;;;40.90;22.20;;;14.40;99.90;;;;;;4943874;29;20590;-79
2023/10/09 08:26:28;;;;;;;36.42;22.08;;;14.40;99.90;;;;;;4943882;29;20263;-79
2023/10/09 08:29:15;;;;;;;34.28;19.63;;;14.50;99.90;;;;;;4929477;29;20243;-80
2023/10/09 08:31:46;;;;;;;34.28;22.25;;;14.50;99.90;;;;;;4928698;29;20207;-81
2023/10/09 08:34:24;;;;;;;37.13;22.37;;;14.60;99.90;;;;;;4937553;29;20218;-78
2023/10/09 08:36:53;;;;;;;32.33;21.88;;;14.60;99.90;;;;;;4935471;29;20702;-80
2023/10/09 08:39:26;;;;;;;39.65;23.60;;;14.60;99.90;;;;;;4941919;29;20235;-81
2023/10/09 08:41:54;;;;;;;37.45;22.75;;;14.70;99.90;;;;;;4941266;29;20207;-79
2023/10/09 08:44:25;;;;;;;37.50;23.90;;;14.70;99.90;;;;;;4938387;29;20207;-80
2023/10/09 08:46:53;;;;;;;36.22;22.50;;;15.00;99.90;;;;;;4941624;29;20691;-80
2023/10/09 08:49:21;;;;;;;34.10;22.33;;;14.80;99.90;;;;;;4950037;29;20223;-80
2023/10/09 08:51:48;;;;;;;36.22;22.88;;;14.80;99.90;;;;;;4951481;29;20257;-79
2023/10/09 08:54:16;;;;;;;38.22;23.77;;;14.90;99.90;;;;;;4950921;29;20215;-81
2023/10/09 08:56:50;;;;;;;38.40;24.83;;;14.80;99.90;;;;;;4944848;29;20258;-79
2023/10/09 08:59:19;;;;;;;34.00;23.15;;;14.90;99.90;;;;;;4944126;29;20223;-79
2023/10/09 09:01:49;;;;;;;33.80;22.77;;;14.90;99.90;;;;;;4943179;29;20274;-79
2023/10/09 09:04:38;;;;;;;31.13;21.02;;;15.00;99.90;;;;;;4935379;29;20498;-82
2023/10/09 09:07:05;;;;;;;33.17;21.95;;;15.00;99.90;;;;;;4930517;29;20709;-80
2023/10/09 09:09:34;;;;;;;34.33;20.58;;;15.20;99.90;;;;;;4953297;29;20233;-79
2023/10/09 09:12:01;;;;;;;33.33;19.67;;;15.20;99.90;;;;;;4944900;29;20239;-81
2023/10/09 09:14:38;;;;;;;30.70;20.02;;;15.30;99.90;;;;;;4944623;29;20203;-81
2023/10/09 09:17:09;;;;;;;34.20;20.42;;;15.30;99.90;;;;;;4925514;29;20227;-81
2023/10/09 09:19:37;;;;;;;30.73;20.85;;;15.40;99.90;;;;;;4940714;29;20231;-82
2023/10/09 09:22:12;;;;;;;33.08;20.20;;;15.40;99.90;;;;;;4926386;29;20208;-78
2023/10/09 09:24:46;;;;;;;32.78;20.23;;;15.40;99.90;;;;;;4949530;29;20209;-80
2023/10/09 09:27:19;;;;;;;30.13;19.90;;;15.40;99.90;;;;;;4943679;29;20219;-80
2023/10/09 09:29:52;;;;;;;31.80;19.95;;;15.40;99.90;;;;;;4942484;29;20226;-81
2023/10/09 09:32:29;;;;;;;31.35;21.48;;;15.40;99.90;;;;;;4944480;29;20225;-80
2023/10/09 09:35:00;;;;;;;30.55;20.40;;;15.50;99.90;;;;;;4936894;29;20210;-82
2023/10/09 09:37:29;;;;;;;31.55;20.42;;;15.60;99.90;;;;;;4943662;29;20219;-80
2023/10/09 09:40:00;;;;;;;30.75;21.15;;;15.60;99.90;;;;;;4951501;29;20733;-81
2023/10/09 09:42:31;;;;;;;34.95;21.92;;;15.60;99.90;;;;;;4943363;28;20217;-80
2023/10/09 09:45:03;;;;;;;31.88;21.15;;;15.70;99.90;;;;;;4940274;29;20212;-80
2023/10/09 09:47:35;;;;;;;33.50;21.42;;;15.70;99.90;;;;;;4941558;29;20286;-80
2023/10/09 09:50:13;;;;;;;28.00;19.90;;;15.70;99.90;;;;;;4943819;29;20230;-81
2023/10/09 09:52:40;;;;;;;33.97;22.17;;;15.70;99.90;;;;;;4944070;29;20265;-81
2023/10/09 09:55:14;;;;;;;37.30;23.17;;;15.70;99.90;;;;;;4943416;29;20270;-81
2023/10/09 09:57:45;;;;;;;33.55;24.13;;;15.70;99.90;;;;;;4942853;29;20209;-81
2023/10/09 10:00:28;;;;;;;35.35;23.90;;;15.80;99.90;;;;;;4940078;29;20215;-82
2023/10/09 10:02:58;;;;;;;32.67;23.88;;;15.70;99.90;;;;;;4950025;29;20207;-80
2023/10/09 10:05:29;;;;;;;31.38;23.52;;;15.60;99.90;;;;;;4942478;29;20207;-81
2023/10/09 10:07:58;;;;;;;33.17;24.33;;;15.60;99.90;;;;;;4942333;29;20212;-82
2023/10/09 10:10:39;;;;;;;33.65;25.73;;;15.70;99.90;;;;;;4938481;29;20225;-81
2023/10/09 10:13:06;;;;;;;37.63;27.35;;;15.60;99.90;;;;;;4937859;29;20211;-82
2023/10/09 10:16:13;;;;;;;36.53;26.25;;;15.60;99.90;;;;;;4952419;29;20265;-80
2023/10/09 10:18:59;;;;;;;34.05;25.23;;;15.60;99.90;;;;;;4941185;29;20237;-81
2023/10/09 10:21:42;;;;;;;34.65;25.63;;;15.60;99.90;;;;;;4937039;29;20218;-82
2023/10/09 10:24:54;;;;;;;31.80;24.30;;;15.60;99.90;;;;;;4925902;29;20227;-81
2023/10/09 10:27:32;;;;;;;34.95;25.77;;;15.60;99.90;;;;;;4924688;29;20238;-80
2023/10/09 10:30:31;;;;;;;31.45;25.80;;;15.60;99.90;;;;;;4934937;29;20691;-81
2023/10/09 10:33:09;;;;;;;32.40;25.15;;;15.60;99.90;;;;;;4945718;29;20206;-81
2023/10/09 10:35:44;;;;;;;32.00;26.45;;;15.50;99.90;;;;;;4945520;29;20210;-80
2023/10/09 10:38:39;;;;;;;33.55;25.92;;;15.50;99.90;;;;;;4942214;29;20238;-80
2023/10/09 10:41:14;;;;;;;30.85;24.95;;;15.50;99.90;;;;;;4942388;29;20223;-78
2023/10/09 10:43:54;;;;;;;31.50;24.27;;;15.50;99.90;;;;;;4942794;29;20218;-80
2023/10/09 10:49:15;;;;;;;28.70;22.05;;;15.50;99.90;;;;;;4935556;29;20226;-80
2023/10/09 10:51:48;;;;;;;29.02;21.85;;;15.50;99.90;;;;;;4934017;29;20234;-81
2023/10/09 10:57:19;;;;;;;26.95;20.67;;;15.60;99.90;;;;;;4928538;29;20727;-83
2023/10/09 10:59:49;;;;;;;29.88;20.88;;;15.50;99.90;;;;;;4934652;29;20238;-81
2023/10/09 11:02:27;;;;;;;24.95;18.77;;;15.50;99.90;;;;;;4928712;29;20222;-83
2023/10/09 11:04:54;;;;;;;30.13;19.55;;;15.50;99.90;;;;;;4940568;29;20222;-82
2023/10/09 11:07:26;;;;;;;25.58;17.38;;;15.50;99.90;;;;;;4941732;29;20242;-81
2023/10/09 11:10:09;;;;;;;24.42;17.70;;;15.50;99.90;;;;;;4933166;29;20238;-82
2023/10/09 11:13:29;;;;;;;23.55;17.45;;;15.50;99.90;;;;;;4943774;29;20214;-82
2023/10/09 11:15:55;;;;;;;26.10;18.30;;;15.50;99.90;;;;;;4942506;29;20211;-82
2023/10/09 11:18:25;;;;;;;25.13;18.67;;;15.50;99.90;;;;;;4942733;29;20227;-84
2023/10/09 11:21:22;;;;;;;24.17;18.77;;;15.50;99.90;;;;;;4942571;29;20221;-83
2023/10/09 11:26:40;;;;;;;23.25;18.52;;;15.50;99.90;;;;;;4938195;29;20223;-84
2023/10/09 11:29:23;;;;;;;27.38;20.55;;;15.50;99.90;;;;;;4941155;29;20241;-86
2023/10/09 11:32:00;;;;;;;26.60;19.95;;;15.50;99.90;;;;;;4945234;28;20198;-83
2023/10/09 11:34:31;;;;;;;27.80;20.77;;;15.60;99.90;;;;;;4942964;29;20213;-83
2023/10/09 11:36:59;;;;;;;27.35;20.65;;;15.50;99.90;;;;;;4941408;29;20258;-83
2023/10/09 11:39:37;;;;;;;28.85;22.65;;;15.60;99.90;;;;;;4931799;29;20321;-81
2023/10/09 11:42:07;;;;;;;29.05;22.67;;;15.60;99.90;;;;;;4942272;29;20722;-83
2023/10/09 11:44:40;;;;;;;28.63;22.65;;;15.60;99.90;;;;;;4941778;29;20297;-82
2023/10/09 11:47:24;;;;;;;28.58;22.33;;;15.60;99.90;;;;;;4941570;29;20226;-82
2023/10/09 11:50:02;;;;;;;26.73;21.67;;;15.60;99.90;;;;;;4942219;29;20227;-81
2023/10/09 11:52:38;;;;;;;24.33;19.70;;;15.60;99.90;;;;;;4940428;29;20610;-82
2023/10/09 11:55:07;;;;;;;24.38;19.20;;;15.60;99.90;;;;;;4940367;29;20215;-84
2023/10/09 11:57:35;;;;;;;24.58;18.70;;;15.60;99.90;;;;;;4941878;29;20199;-83
2023/10/09 12:00:11;;;;;;;24.20;18.15;;;15.60;99.90;;;;;;4942086;29;20231;-82
2023/10/09 12:02:43;;;;;;;23.10;18.08;;;15.70;99.90;;;;;;4943288;29;20206;-82
2023/10/09 12:05:16;;;;;;;23.05;17.67;;;15.90;99.90;;;;;;4943770;29;20206;-84
2023/10/09 12:07:44;;;;;;;21.52;17.35;;;15.60;99.90;;;;;;4933133;29;20223;-84
2023/10/09 12:10:13;;;;;;;22.30;15.93;;;15.60;99.90;;;;;;4932035;29;20211;-84
2023/10/09 12:12:46;;;;;;;21.05;15.20;;;15.70;99.90;;;;;;4941262;29;20286;-82
2023/10/09 12:15:17;;;;;;;16.25;12.00;;;15.60;99.90;;;;;;4935121;29;20216;-84
2023/10/09 12:17:46;;;;;;;17.17;11.70;;;15.70;99.90;;;;;;4929045;29;20660;-84
2023/10/09 12:20:29;;;;;;;14.80;11.88;;;15.70;99.90;;;;;;4930445;29;20243;-83
2023/10/09 12:22:58;;;;;;;13.25;9.85;;;15.70;99.90;;;;;;4923340;29;20200;-86
2023/10/09 12:25:25;;;;;;;10.18;7.88;;;15.70;99.90;;;;;;4936973;29;20203;-83
2023/10/09 12:27:54;;;;;;;9.68;7.88;;;15.70;99.90;;;;;;4943507;29;20728;-84
2023/10/09 12:30:26;;;;;;;8.93;7.00;;;15.70;99.90;;;;;;4942909;29;20207;-84
2023/10/09 12:32:57;;;;;;;9.85;7.60;;;15.70;99.90;;;;;;4943737;29;20251;-83
2023/10/09 12:35:24;;;;;;;10.23;7.60;;;15.70;99.90;;;;;;4945773;29;20206;-81
2023/10/09 12:37:52;;;;;;;9.18;7.10;;;15.70;99.90;;;;;;4946098;29;20207;-84
2023/10/09 12:40:24;;;;;;;8.50;7.25;;;15.60;99.90;;;;;;4947281;29;20559;-84
2023/10/09 12:42:55;;;;;;;9.38;7.22;;;15.70;99.90;;;;;;4954694;29;20609;-85
2023/10/09 12:45:26;;;;;;;9.85;7.78;;;15.70;99.90;;;;;;4958590;29;20679;-83
2023/10/09 12:47:58;;;;;;;7.68;6.75;;;15.80;99.90;;;;;;4945095;29;20227;-83
2023/10/09 12:50:28;;;;;;;8.80;7.40;;;15.60;99.90;;;;;;4945778;29;20202;-83
2023/10/09 12:52:56;;;;;;;8.43;7.53;;;15.70;99.90;;;;;;4953246;29;20642;-83
2023/10/09 12:55:31;;;;;;;10.98;7.65;;;15.70;99.90;;;;;;4948138;29;20638;-85
2023/10/09 12:58:03;;;;;;;8.13;7.10;;;15.70;99.90;;;;;;4949424;29;20238;-84
2023/10/09 13:00:32;;;;;;;9.25;7.72;;;15.70;99.90;;;;;;4955794;29;20857;-85
2023/10/09 13:03:01;;;;;;;10.40;7.55;;;15.70;99.90;;;;;;4946240;29;20660;-85
2023/10/09 13:05:28;;;;;;;9.55;7.60;;;15.70;99.90;;;;;;4943969;29;20211;-83
2023/10/09 13:07:56;;;;;;;10.98;8.73;;;15.70;99.90;;;;;;4943668;29;20305;-82
2023/10/09 13:10:24;;;;;;;8.38;7.50;;;15.80;99.90;;;;;;4943100;29;20306;-85
2023/10/09 13:12:55;;;;;;;11.45;9.07;;;15.70;99.90;;;;;;4943866;29;20215;-83
2023/10/09 13:15:22;;;;;;;11.35;9.23;;;15.80;99.90;;;;;;4941934;29;20253;-84
2023/10/09 13:17:53;;;;;;;11.10;9.15;;;15.80;99.90;;;;;;4942985;29;20291;-83
2023/10/09 13:20:21;;;;;;;12.98;9.95;;;15.70;99.90;;;;;;4945105;29;20198;-83
2023/10/09 13:22:52;;;;;;;13.30;10.57;;;15.90;99.90;;;;;;4944990;29;20276;-87
2023/10/09 13:25:24;;;;;;;11.77;9.52;;;15.90;99.90;;;;;;4943909;29;20203;-86
2023/10/09 13:27:51;;;;;;;11.70;9.38;;;15.90;99.90;;;;;;4943321;29;20207;-83
2023/10/09 13:30:23;;;;;;;12.70;10.30;;;15.90;99.90;;;;;;4943391;29;20294;-83
2023/10/09 13:32:50;;;;;;;13.82;10.65;;;15.90;99.90;;;;;;4944380;28;20211;-85
2023/10/09 13:35:19;;;;;;;14.93;10.98;;;16.00;99.90;;;;;;4944465;29;20662;-84
2023/10/09 13:37:53;;;;;;;15.88;10.93;;;16.00;99.90;;;;;;4946428;29;20586;-85
2023/10/09 13:40:27;;;;;;;13.18;10.50;;;16.00;99.90;;;;;;4946258;29;20203;-85
2023/10/09 13:42:58;;;;;;;12.63;10.55;;;16.00;99.90;;;;;;4945984;29;20605;-84
2023/10/09 13:45:27;;;;;;;12.10;10.55;;;16.10;99.90;;;;;;4945957;29;20195;-83
2023/10/09 13:47:55;;;;;;;12.65;10.07;;;16.10;99.90;;;;;;4945462;29;20230;-82
2023/10/09 13:50:28;;;;;;;13.30;10.55;;;16.10;99.90;;;;;;4945649;29;20469;-84
2023/10/09 13:52:57;;;;;;;13.65;10.57;;;16.20;99.90;;;;;;4946865;29;20201;-84
2023/10/09 13:55:31;;;;;;;13.13;10.30;;;16.10;99.90;;;;;;4946797;29;20283;-84
2023/10/09 13:57:58;;;;;;;12.90;10.38;;;16.10;99.90;;;;;;4926181;29;20297;-85
2023/10/09 14:00:34;;;;;;;13.80;10.40;;;16.20;99.90;;;;;;4926313;29;20208;-86